Time;durP1;ratioP1;P1;durP2;ratioP2;P2;SDS_P1;SDS_P2;PMS_P1;PMS_P2;Temp;Humidity;BMP_temperature;BMP_pressure;BME280_temperature;BME280_humidity;BME280_pressure;Samples;Min_cycle;Max_cycle;Signal;HPM_P1;HPM_P2
2023/01/26 00:00:41;;;;;;;101.32;33.25;;;;;;;-146.25;100.00;52512.16;2087706;28;23286;-70
2023/01/26 00:01:43;;;;;;;105.80;32.42;;;;;;;-146.25;100.00;52542.56;2087426;28;42306;-70
2023/01/26 00:02:45;;;;;;;102.63;32.83;;;;;;;-146.25;100.00;52520.28;2087095;28;39093;-70
2023/01/26 00:03:50;;;;;;;96.00;31.25;;;;;;;-146.25;100.00;52512.16;2088630;28;25429;-70
2023/01/26 00:04:51;;;;;;;107.25;33.15;;;;;;;-146.25;100.00;52510.13;2088211;28;35482;-70
2023/01/26 00:05:53;;;;;;;107.75;33.47;;;;;;;-146.25;100.00;52520.28;2088086;28;37327;-70
2023/01/26 00:06:55;;;;;;;100.93;32.22;;;;;;;-146.25;100.00;52475.66;2088445;28;20037;-70
2023/01/26 00:07:57;;;;;;;103.60;32.33;;;;;;;-146.25;100.00;52522.28;2087290;28;40015;-70
2023/01/26 00:08:58;;;;;;;96.80;31.58;;;;;;;-146.25;100.00;52532.44;2087125;28;41977;-70
2023/01/26 00:10:00;;;;;;;104.53;31.77;;;;;;;-146.25;100.00;52493.91;2088104;28;36789;-70
2023/01/26 00:11:04;;;;;;;103.85;33.15;;;;;;;-146.25;100.00;52506.06;2088113;28;41750;-70
2023/01/26 00:12:06;;;;;;;104.45;31.50;;;;;;;-146.25;100.00;52514.19;2087489;28;38768;-70
2023/01/26 00:13:09;;;;;;;104.43;32.60;;;;;;;-146.25;100.00;52524.31;2088902;28;20053;-70
2023/01/26 00:14:11;;;;;;;106.18;33.35;;;;;;;-146.25;100.00;52526.34;2087476;28;41967;-70
2023/01/26 00:15:12;;;;;;;101.45;33.05;;;;;;;-146.25;100.00;52514.19;2088792;28;20056;-70
2023/01/26 00:16:14;;;;;;;97.60;31.48;;;;;;;-146.25;100.00;52502.03;2088296;28;40614;-70
2023/01/26 00:17:24;;;;;;;111.70;32.85;;;;;;;-146.25;100.00;52510.13;2087068;28;41877;-70
2023/01/26 00:18:27;;;;;;;105.97;32.05;;;;;;;-146.25;100.00;52502.03;2087026;28;36215;-70
2023/01/26 00:19:28;;;;;;;97.88;32.25;;;;;;;-146.25;100.00;52512.16;2087194;28;40396;-70
2023/01/26 00:20:30;;;;;;;108.72;32.35;;;;;;;-146.25;100.00;52514.19;2087769;28;38161;-70
2023/01/26 00:21:32;;;;;;;106.32;32.85;;;;;;;-146.25;100.00;52485.81;2087902;28;40866;-70
2023/01/26 00:22:33;;;;;;;105.80;32.67;;;;;;;-146.25;100.00;52487.81;2088016;28;41235;-70
2023/01/26 00:23:37;;;;;;;114.50;32.92;;;;;;;-146.25;100.00;52520.28;2086865;28;36939;-70
2023/01/26 00:24:39;;;;;;;103.70;33.38;;;;;;;-146.25;100.00;52518.25;2087322;28;39362;-70
2023/01/26 00:25:40;;;;;;;105.03;31.58;;;;;;;-146.25;100.00;52475.66;2087911;28;21139;-70
2023/01/26 00:26:42;;;;;;;108.20;33.28;;;;;;;-146.25;100.00;52491.88;2087738;28;40870;-70
2023/01/26 00:27:44;;;;;;;107.15;32.67;;;;;;;-146.25;100.00;52530.41;2087784;28;39246;-71
2023/01/26 00:28:46;;;;;;;109.20;32.20;;;;;;;-146.25;100.00;52489.84;2088714;28;20172;-70
2023/01/26 00:29:48;;;;;;;102.97;30.63;;;;;;;-146.25;100.00;52489.84;2088279;28;37925;-71
2023/01/26 00:30:52;;;;;;;109.63;32.63;;;;;;;-146.25;100.00;52485.81;2088287;28;31507;-71
2023/01/26 00:31:56;;;;;;;103.85;31.83;;;;;;;-146.25;100.00;52497.97;2087887;28;33607;-70
2023/01/26 00:32:58;;;;;;;110.03;32.03;;;;;;;-146.25;100.00;52526.34;2088071;28;32237;-70
2023/01/26 00:34:00;;;;;;;104.10;33.13;;;;;;;-146.25;100.00;52508.09;2089009;28;20123;-70
2023/01/26 00:35:04;;;;;;;100.50;32.63;;;;;;;-146.25;100.00;52546.63;2088378;28;31622;-70
2023/01/26 00:36:06;;;;;;;101.47;31.08;;;;;;;-146.25;100.00;52500.00;2087400;28;32896;-70
2023/01/26 00:37:08;;;;;;;110.82;33.67;;;;;;;-146.25;100.00;52510.13;2087472;28;32560;-70
2023/01/26 00:38:13;;;;;;;108.85;33.97;;;;;;;-146.25;100.00;52500.00;2079534;28;30902;-70
2023/01/26 00:39:15;;;;;;;106.88;32.13;;;;;;;-146.25;100.00;52493.91;2080683;28;20050;-70
2023/01/26 00:40:16;;;;;;;112.60;32.50;;;;;;;-146.25;100.00;52497.97;2087328;28;36840;-70
2023/01/26 00:42:39;;;;;;;103.90;30.85;;;;;;;-146.25;100.00;52506.06;2082098;28;20084;-70
2023/01/26 00:43:41;;;;;;;98.95;31.08;;;;;;;-146.25;100.00;52524.31;2087522;28;35610;-70
2023/01/26 00:44:45;;;;;;;94.00;30.20;;;;;;;-146.25;100.00;52504.03;2079956;28;29979;-70
2023/01/26 00:45:49;;;;;;;106.47;30.77;;;;;;;-146.25;100.00;52497.97;2080544;28;20860;-70
2023/01/26 00:46:55;;;;;;;102.88;30.73;;;;;;;-146.25;100.00;52550.69;2081684;28;20121;-70
2023/01/26 00:47:59;;;;;;;97.55;29.35;;;;;;;-146.25;100.00;52514.19;2088086;28;22733;-70
2023/01/26 00:49:03;;;;;;;102.22;30.73;;;;;;;-146.25;100.00;52532.44;2086596;28;35665;-70
2023/01/26 00:50:08;;;;;;;104.53;30.98;;;;;;;-146.25;100.00;52477.69;2088371;28;20038;-70
2023/01/26 00:51:10;;;;;;;99.25;31.08;;;;;;;-146.25;100.00;52473.63;2088646;28;20084;-70
2023/01/26 00:52:12;;;;;;;97.32;30.55;;;;;;;-146.25;100.00;52500.00;2087903;28;35571;-68
2023/01/26 00:53:13;;;;;;;99.88;29.88;;;;;;;-146.25;100.00;52489.84;2087724;28;31974;-70
2023/01/26 00:54:15;;;;;;;96.35;31.15;;;;;;;-146.25;100.00;52570.97;2087959;28;20072;-69
2023/01/26 00:55:17;;;;;;;105.30;32.15;;;;;;;-146.25;100.00;52495.94;2087393;28;29532;-69
2023/01/26 00:56:19;;;;;;;99.55;31.30;;;;;;;-146.25;100.00;52493.91;2088216;28;20038;-69
2023/01/26 00:57:20;;;;;;;106.50;30.67;;;;;;;-146.25;100.00;52489.84;2079391;28;31443;-70
2023/01/26 00:58:22;;;;;;;98.43;31.35;;;;;;;-146.25;100.00;52510.13;2079427;28;27554;-70
2023/01/26 00:59:24;;;;;;;103.15;30.13;;;;;;;-146.25;100.00;52512.16;2078834;28;33155;-70
2023/01/26 01:00:30;;;;;;;98.20;30.02;;;;;;;-146.25;100.00;52493.91;2080613;28;20085;-71
2023/01/26 01:01:32;;;;;;;104.00;32.38;;;;;;;-146.25;100.00;52516.22;2079829;28;27057;-71
2023/01/26 01:02:33;;;;;;;91.20;29.77;;;;;;;-146.25;100.00;52495.94;2087490;28;31005;-71
2023/01/26 01:03:35;;;;;;;95.38;30.08;;;;;;;-146.25;100.00;52495.94;2079629;28;32401;-70
2023/01/26 01:04:37;;;;;;;97.10;31.80;;;;;;;-146.25;100.00;52497.97;2080647;28;20053;-70
2023/01/26 01:05:39;;;;;;;97.45;29.60;;;;;;;-146.25;100.00;52516.22;2087367;28;20041;-71
2023/01/26 01:06:41;;;;;;;106.55;31.92;;;;;;;-146.25;100.00;52508.09;2087298;28;32963;-71
2023/01/26 01:07:44;;;;;;;101.32;30.38;;;;;;;-146.25;100.00;52506.06;2085735;28;20124;-71
2023/01/26 01:08:45;;;;;;;107.85;31.42;;;;;;;-146.25;100.00;52526.34;2079012;28;31139;-70
2023/01/26 01:09:47;;;;;;;102.93;31.15;;;;;;;-146.25;100.00;52506.06;2079721;28;20198;-70
2023/01/26 01:10:49;;;;;;;102.55;30.88;;;;;;;-146.25;100.00;52520.28;2079857;28;32226;-71
2023/01/26 01:11:51;;;;;;;100.97;30.75;;;;;;;-146.25;100.00;52518.25;2079572;28;26571;-71
2023/01/26 01:12:53;;;;;;;106.47;31.55;;;;;;;-146.25;100.00;52526.34;2087804;28;27967;-70
2023/01/26 01:13:54;;;;;;;99.43;31.17;;;;;;;-146.25;100.00;52520.28;2078721;28;20053;-70
2023/01/26 01:14:56;;;;;;;107.18;32.25;;;;;;;-146.25;100.00;52516.22;2087512;28;33388;-71
2023/01/26 01:15:58;;;;;;;100.10;30.92;;;;;;;-146.25;100.00;52508.09;2087651;28;20068;-70
2023/01/26 01:16:59;;;;;;;109.30;32.30;;;;;;;-146.25;100.00;52502.03;2087480;28;32057;-70
2023/01/26 01:18:01;;;;;;;112.88;32.10;;;;;;;-146.25;100.00;52471.59;2086800;28;30384;-71
2023/01/26 01:19:03;;;;;;;92.95;29.50;;;;;;;-146.25;100.00;52522.28;2079621;28;20096;-70
2023/01/26 01:20:09;;;;;;;104.03;32.67;;;;;;;-146.25;100.00;52522.28;2087059;28;26392;-70
2023/01/26 01:21:16;;;;;;;109.20;31.40;;;;;;;-146.25;100.00;52534.47;2087383;28;36160;-70
2023/01/26 01:22:18;;;;;;;101.32;29.35;;;;;;;-146.25;100.00;52522.28;2088161;28;26122;-71
2023/01/26 01:23:20;;;;;;;109.50;31.80;;;;;;;-146.25;100.00;52522.28;2088455;28;31100;-70
2023/01/26 01:24:21;;;;;;;102.43;30.75;;;;;;;-146.25;100.00;52497.97;2086920;28;26334;-71
2023/01/26 01:25:23;;;;;;;101.40;28.90;;;;;;;-146.25;100.00;52495.94;2087467;28;29397;-70
2023/01/26 01:26:28;;;;;;;102.72;31.55;;;;;;;-146.25;100.00;52522.28;2087479;28;20034;-69
2023/01/26 01:27:30;;;;;;;99.32;29.88;;;;;;;-146.25;100.00;52473.63;2087589;28;30576;-70
2023/01/26 01:28:33;;;;;;;105.05;32.30;;;;;;;-146.25;100.00;52518.25;2087241;28;36856;-70
2023/01/26 01:29:35;;;;;;;93.15;28.17;;;;;;;-146.25;100.00;52491.88;2087308;28;34401;-71
2023/01/26 01:30:37;;;;;;;104.70;31.00;;;;;;;-146.25;100.00;52518.25;2079732;28;31574;-70
2023/01/26 01:31:40;;;;;;;98.65;30.63;;;;;;;-146.25;100.00;52510.13;2089155;28;25824;-70
2023/01/26 01:32:43;;;;;;;100.72;31.27;;;;;;;-146.25;100.00;52518.25;2089404;28;21287;-70
2023/01/26 01:33:45;;;;;;;99.75;30.80;;;;;;;-146.25;100.00;52469.56;2089293;28;36219;-70
2023/01/26 01:34:50;;;;;;;102.15;30.17;;;;;;;-146.25;100.00;52518.25;2089898;28;20753;-70
2023/01/26 01:35:57;;;;;;;106.43;30.38;;;;;;;-146.25;100.00;52502.03;2089032;28;31331;-70
2023/01/26 01:36:58;;;;;;;102.13;29.65;;;;;;;-146.25;100.00;52479.72;2088436;28;30332;-70
2023/01/26 01:38:00;;;;;;;94.57;29.80;;;;;;;-146.25;100.00;52526.34;2089239;28;32968;-70
2023/01/26 01:39:02;;;;;;;103.50;30.15;;;;;;;-146.25;100.00;52493.91;2088117;28;36751;-71
2023/01/26 01:40:04;;;;;;;101.22;30.27;;;;;;;-146.25;100.00;52528.38;2080492;28;32968;-71
2023/01/26 01:41:07;;;;;;;95.18;29.20;;;;;;;-146.25;100.00;52542.56;2088423;28;20151;-70
2023/01/26 01:42:09;;;;;;;97.25;29.27;;;;;;;-146.25;100.00;52524.31;2089588;28;27424;-70
2023/01/26 01:43:12;;;;;;;105.57;30.88;;;;;;;-146.25;100.00;52516.22;2088953;28;34467;-70
2023/01/26 01:44:20;;;;;;;100.55;30.02;;;;;;;-146.25;100.00;52548.66;2089282;28;31915;-71
2023/01/26 01:45:25;;;;;;;110.03;31.33;;;;;;;-146.25;100.00;52518.25;2088555;28;33742;-71
2023/01/26 01:46:34;;;;;;;106.93;31.10;;;;;;;-146.25;100.00;52508.09;2089793;28;20152;-70
2023/01/26 01:47:36;;;;;;;104.82;30.48;;;;;;;-146.25;100.00;52502.03;2089682;28;29758;-70
2023/01/26 01:48:58;;;;;;;104.18;30.45;;;;;;;-146.25;100.00;52506.06;2072780;28;20165;-71
2023/01/26 01:50:03;;;;;;;98.63;28.88;;;;;;;-146.25;100.00;52536.50;2081318;28;22522;-70
2023/01/26 01:51:15;;;;;;;100.00;29.48;;;;;;;-146.25;100.00;52526.34;2096687;28;22905;-71
2023/01/26 01:52:28;;;;;;;94.30;29.63;;;;;;;-146.25;100.00;52530.41;2088840;28;32058;-71
2023/01/26 01:53:38;;;;;;;99.35;29.38;;;;;;;-146.25;100.00;52512.16;2082159;28;38105;-71
2023/01/26 01:54:55;;;;;;;87.55;27.33;;;;;;;-146.25;100.00;52526.34;2081887;28;28511;-70
2023/01/26 01:56:04;;;;;;;98.22;27.60;;;;;;;-146.25;100.00;52489.84;2085047;28;31675;-70
2023/01/26 01:57:14;;;;;;;;;;;;;;;-146.25;100.00;52461.47;2073327;28;20177;-71
2023/01/26 01:58:19;;;;;;;94.72;27.52;;;;;;;-146.25;100.00;52502.03;2067491;28;19929;-70
2023/01/26 01:59:21;;;;;;;97.45;28.90;;;;;;;-146.25;100.00;52502.03;2079590;28;31759;-70
2023/01/26 02:00:23;;;;;;;94.85;29.25;;;;;;;-146.25;100.00;52526.34;2072507;28;20085;-70
2023/01/26 02:01:25;;;;;;;103.65;29.58;;;;;;;-146.25;100.00;52506.06;2072991;28;23842;-70
2023/01/26 02:02:27;;;;;;;95.95;28.23;;;;;;;-146.25;100.00;52493.91;2079379;28;37284;-70
2023/01/26 02:03:31;;;;;;;104.78;31.35;;;;;;;-146.25;100.00;52477.69;2080433;28;32860;-71
2023/01/26 02:04:33;;;;;;;92.78;28.05;;;;;;;-146.25;100.00;52510.13;2080685;28;20812;-70
2023/01/26 02:05:48;;;;;;;99.30;29.45;;;;;;;-146.25;100.00;52548.66;2081000;28;20891;-70
2023/01/26 02:06:56;;;;;;;103.00;29.10;;;;;;;-146.25;100.00;52526.34;2080901;28;20870;-70
2023/01/26 02:08:00;;;;;;;106.07;30.55;;;;;;;-146.25;100.00;52520.28;2066417;28;20046;-70
2023/01/26 02:09:05;;;;;;;109.65;30.98;;;;;;;-146.25;100.00;52502.03;2065715;28;30516;-70
2023/01/26 02:10:17;;;;;;;103.35;31.02;;;;;;;-146.25;100.00;52481.75;2081528;28;20042;-71
2023/01/26 02:11:43;;;;;;;105.57;29.67;;;;;;;-146.25;100.00;52552.72;2080838;28;20048;-70
2023/01/26 02:12:54;;;;;;;102.97;29.55;;;;;;;-146.25;100.00;52489.84;2075577;28;20128;-70
2023/01/26 02:13:58;;;;;;;100.38;31.02;;;;;;;-146.25;100.00;52475.66;2073162;28;38271;-70
2023/01/26 02:15:00;;;;;;;102.35;30.45;;;;;;;-146.25;100.00;52485.81;2073568;28;32453;-70
2023/01/26 02:16:02;;;;;;;110.75;31.20;;;;;;;-146.25;100.00;52506.06;2072255;28;20046;-70
2023/01/26 02:17:08;;;;;;;115.38;31.90;;;;;;;-146.25;100.00;52475.66;2072537;28;20073;-70
2023/01/26 02:18:10;;;;;;;115.63;32.40;;;;;;;-146.25;100.00;52526.34;2080933;28;20796;-70
2023/01/26 02:19:38;;;;;;;120.18;32.55;;;;;;;-146.25;100.00;52485.81;2080259;28;20887;-70
2023/01/26 02:20:55;;;;;;;107.30;30.08;;;;;;;-146.25;100.00;52455.38;2080879;28;20038;-70
2023/01/26 02:22:07;;;;;;;105.70;30.25;;;;;;;-146.25;100.00;52477.69;2072639;28;20052;-70
2023/01/26 02:23:59;;;;;;;102.70;31.10;;;;;;;-146.25;100.00;52520.28;2075194;28;20435;-71
2023/01/26 02:25:17;;;;;;;92.68;26.75;;;;;;;-146.25;100.00;52550.69;2082344;28;20176;-71
2023/01/26 02:26:22;;;;;;;104.47;28.83;;;;;;;-146.25;100.00;52516.22;2089185;28;20030;-70
2023/01/26 02:27:26;;;;;;;100.43;28.88;;;;;;;-146.25;100.00;52552.72;2080202;28;20046;-71
2023/01/26 02:28:28;;;;;;;108.60;30.00;;;;;;;-146.25;100.00;52497.97;2080725;28;21062;-68
2023/01/26 02:29:30;;;;;;;105.93;30.65;;;;;;;-146.25;100.00;52514.19;2080242;28;30481;-70
2023/01/26 02:30:32;;;;;;;105.72;29.77;;;;;;;-146.25;100.00;52502.03;2080148;28;32425;-70
2023/01/26 02:31:36;;;;;;;102.82;30.65;;;;;;;-146.25;100.00;52518.25;2082857;28;28352;-70
2023/01/26 02:32:38;;;;;;;106.97;30.75;;;;;;;-146.25;100.00;52526.34;2089152;28;25797;-70
2023/01/26 02:33:41;;;;;;;105.75;29.73;;;;;;;-146.25;100.00;52473.63;2087650;28;20121;-70
2023/01/26 02:34:43;;;;;;;110.25;30.52;;;;;;;-146.25;100.00;52495.94;2081090;28;20065;-70
2023/01/26 02:35:46;;;;;;;114.50;30.25;;;;;;;-146.25;100.00;52493.91;2072239;28;20043;-70
2023/01/26 02:36:57;;;;;;;109.28;30.67;;;;;;;-146.25;100.00;52487.81;2080325;28;32144;-70
2023/01/26 02:37:59;;;;;;;104.88;27.25;;;;;;;-146.25;100.00;52487.81;2080546;28;20922;-70
2023/01/26 02:39:43;;;;;;;106.03;30.33;;;;;;;-146.25;100.00;52512.16;2071930;28;20050;-70
2023/01/26 02:40:50;;;;;;;98.20;28.00;;;;;;;-146.25;100.00;52506.06;2086141;28;20069;-70
2023/01/26 02:43:16;;;;;;;108.78;28.25;;;;;;;-146.25;100.00;52497.97;2072034;28;20047;-70
2023/01/26 02:44:18;;;;;;;100.70;29.00;;;;;;;-146.25;100.00;52514.19;2075181;28;34996;-70
2023/01/26 02:45:21;;;;;;;105.88;28.65;;;;;;;-146.25;100.00;52512.16;2080632;28;20980;-71
2023/01/26 02:46:23;;;;;;;103.03;28.38;;;;;;;-146.25;100.00;52500.00;2064675;28;20074;-70
2023/01/26 02:47:25;;;;;;;108.65;28.95;;;;;;;-146.25;100.00;52520.28;2072572;28;20039;-70
2023/01/26 02:49:51;;;;;;;90.82;26.67;;;;;;;-146.25;100.00;52520.28;2080370;28;35378;-71
2023/01/26 02:50:54;;;;;;;103.38;28.50;;;;;;;-146.25;100.00;52485.81;2080648;28;20042;-70
2023/01/26 02:51:56;;;;;;;93.25;27.52;;;;;;;-146.25;100.00;52554.75;2071850;28;20070;-70
2023/01/26 02:52:59;;;;;;;100.95;27.48;;;;;;;-146.25;100.00;52526.34;2072128;28;25400;-70
2023/01/26 02:54:00;;;;;;;96.72;26.73;;;;;;;-146.25;100.00;52465.53;2079876;28;20085;-70
2023/01/26 02:56:22;;;;;;;;;;;;;;;-146.25;100.00;52502.03;2083397;28;20042;-70
2023/01/26 02:57:25;;;;;;;90.53;25.58;;;;;;;-146.25;100.00;52536.50;2080572;28;19948;-70
2023/01/26 02:58:29;;;;;;;90.78;25.70;;;;;;;-146.25;100.00;52491.88;2080489;28;20112;-70
2023/01/26 02:59:31;;;;;;;93.40;26.02;;;;;;;-146.25;100.00;52497.97;2081633;28;20046;-70
2023/01/26 03:00:40;;;;;;;95.00;26.27;;;;;;;-146.25;100.00;52530.41;2082854;28;20830;-70
2023/01/26 03:01:48;;;;;;;98.43;28.45;;;;;;;-146.25;100.00;52493.91;2081806;28;20123;-71
2023/01/26 03:02:56;;;;;;;92.75;27.10;;;;;;;-146.25;100.00;52520.28;2074029;28;20132;-70
2023/01/26 03:03:59;;;;;;;92.95;26.02;;;;;;;-146.25;100.00;52469.56;2074522;28;20177;-71
2023/01/26 03:05:00;;;;;;;89.63;25.45;;;;;;;-146.25;100.00;52504.03;2088739;28;28009;-70
2023/01/26 03:06:02;;;;;;;83.70;24.70;;;;;;;-146.25;100.00;52528.38;2088175;28;20780;-70
2023/01/26 03:07:07;;;;;;;82.18;24.98;;;;;;;-146.25;100.00;52504.03;2088240;28;20049;-71
2023/01/26 03:08:09;;;;;;;82.20;24.63;;;;;;;-146.25;100.00;52526.34;2096641;28;20044;-71
2023/01/26 03:09:11;;;;;;;90.55;25.98;;;;;;;-146.25;100.00;52512.16;2088545;28;20048;-69
2023/01/26 03:10:17;;;;;;;86.57;24.95;;;;;;;-146.25;100.00;52542.56;2088712;28;20892;-70
2023/01/26 03:11:18;;;;;;;90.53;26.23;;;;;;;-146.25;100.00;52524.31;2096985;28;20045;-71
2023/01/26 03:12:22;;;;;;;89.15;24.85;;;;;;;-146.25;100.00;52534.47;2089068;28;20045;-71
2023/01/26 03:13:24;;;;;;;85.70;25.80;;;;;;;-146.25;100.00;52516.22;2088065;28;36694;-71
2023/01/26 03:14:29;;;;;;;88.68;24.67;;;;;;;-146.25;100.00;52510.13;2088680;28;31254;-70
2023/01/26 03:15:42;;;;;;;89.85;26.92;;;;;;;-146.25;100.00;52516.22;2088404;28;20723;-70
2023/01/26 03:16:45;;;;;;;92.13;26.55;;;;;;;-146.25;100.00;52522.28;2081565;28;20045;-70
2023/01/26 03:17:49;;;;;;;83.88;25.70;;;;;;;-146.25;100.00;52500.00;2088443;28;20029;-70
2023/01/26 03:28:13;;;;;;;90.90;25.40;;;;;;;-146.25;100.00;52544.59;2082433;28;20937;-70
2023/01/26 03:29:15;;;;;;;92.10;26.17;;;;;;;-146.25;100.00;52546.63;2087719;28;20051;-70
2023/01/26 03:30:20;;;;;;;99.35;27.17;;;;;;;-146.25;100.00;52469.56;2080159;28;20170;-70
2023/01/26 03:31:23;;;;;;;88.85;25.98;;;;;;;-146.25;100.00;52514.19;2080590;28;20053;-70
2023/01/26 03:32:28;;;;;;;93.43;28.10;;;;;;;-146.25;100.00;52536.50;2080894;28;20054;-70
2023/01/26 03:33:29;;;;;;;96.38;28.38;;;;;;;-146.25;100.00;52502.03;2080087;28;20046;-70
2023/01/26 03:34:31;;;;;;;94.13;27.50;;;;;;;-146.25;100.00;52528.38;2088772;28;20044;-70
2023/01/26 03:35:33;;;;;;;96.93;27.98;;;;;;;-146.25;100.00;52485.81;2096644;28;20037;-69
2023/01/26 03:36:36;;;;;;;93.40;27.35;;;;;;;-146.25;100.00;52536.50;2088476;28;20041;-70
2023/01/26 03:37:42;;;;;;;86.88;26.60;;;;;;;-146.25;100.00;52550.69;2080681;28;20038;-69
2023/01/26 03:38:49;;;;;;;96.65;28.05;;;;;;;-146.25;100.00;52502.03;2088373;28;20875;-70
2023/01/26 03:56:17;;;;;;;86.55;24.23;;;;;;;-146.25;100.00;52516.22;2082379;28;20053;-70
2023/01/26 03:57:20;;;;;;;87.50;24.63;;;;;;;-146.25;100.00;52473.63;2080339;28;20756;-70
2023/01/26 03:58:23;;;;;;;88.63;24.88;;;;;;;-146.25;100.00;52526.34;2079996;28;20907;-70
2023/01/26 03:59:37;;;;;;;94.03;26.17;;;;;;;-146.25;100.00;52520.28;2088438;28;20042;-70
2023/01/26 04:00:42;;;;;;;93.20;25.25;;;;;;;-146.25;100.00;52548.66;2087834;28;20050;-70
2023/01/26 04:08:43;;;;;;;;;;;;;;;-146.25;100.00;52526.34;2082897;28;20151;-69
2023/01/26 04:09:47;;;;;;;75.97;21.27;;;;;;;-146.25;100.00;52491.88;2080340;28;19925;-69
2023/01/26 04:10:55;;;;;;;80.55;21.38;;;;;;;-146.25;100.00;52514.19;2088444;28;20123;-69
2023/01/26 04:11:59;;;;;;;78.15;22.05;;;;;;;-146.25;100.00;52502.03;2088297;28;20048;-68
2023/01/26 04:21:25;;;;;;;66.25;18.98;;;;;;;-146.25;100.00;52534.47;2082421;28;20101;-68
2023/01/26 04:22:30;;;;;;;68.38;18.67;;;;;;;-146.25;100.00;52550.69;2089384;28;20057;-68
2023/01/26 04:23:33;;;;;;;71.78;19.92;;;;;;;-146.25;100.00;52554.75;2087517;28;20881;-68
2023/01/26 04:24:37;;;;;;;69.82;19.63;;;;;;;-146.25;100.00;52500.00;2088005;28;20903;-67
2023/01/26 04:25:38;;;;;;;65.72;20.30;;;;;;;-146.25;100.00;52524.31;2087287;28;24645;-67
2023/01/26 04:26:42;;;;;;;72.40;21.15;;;;;;;-146.25;100.00;52506.06;2079962;28;20160;-67
2023/01/26 04:27:57;;;;;;;60.50;18.73;;;;;;;-146.25;100.00;52522.28;2073461;28;20035;-70
2023/01/26 04:29:05;;;;;;;64.95;20.42;;;;;;;-146.25;100.00;52500.00;2071814;28;20170;-66
2023/01/26 04:30:11;;;;;;;56.65;18.38;;;;;;;-146.25;100.00;52506.06;2080454;28;20038;-68
2023/01/26 04:31:15;;;;;;;67.22;19.92;;;;;;;-146.25;100.00;52534.47;2080015;28;20993;-67
2023/01/26 04:32:18;;;;;;;70.88;19.95;;;;;;;-146.25;100.00;52514.19;2079190;28;20244;-68
2023/01/26 04:33:20;;;;;;;66.32;19.83;;;;;;;-146.25;100.00;52530.41;2080082;28;20030;-67
2023/01/26 04:34:23;;;;;;;57.33;17.63;;;;;;;-146.25;100.00;52536.50;2079757;28;20041;-67
2023/01/26 04:35:24;;;;;;;62.42;17.98;;;;;;;-146.25;100.00;52485.81;2080154;28;20046;-67
2023/01/26 04:36:27;;;;;;;58.08;17.75;;;;;;;-146.25;100.00;52552.72;2079537;28;20046;-66
2023/01/26 04:37:29;;;;;;;63.90;19.15;;;;;;;-146.25;100.00;52500.00;2063804;28;20043;-69
2023/01/26 04:38:31;;;;;;;58.67;17.63;;;;;;;-146.25;100.00;52481.75;2063635;28;20881;-69
2023/01/26 04:39:33;;;;;;;61.00;18.83;;;;;;;-146.25;100.00;52485.81;2072376;28;20050;-67
2023/01/26 04:40:34;;;;;;;60.35;19.77;;;;;;;-146.25;100.00;52524.31;2071416;28;20925;-67
2023/01/26 04:41:36;;;;;;;60.25;18.95;;;;;;;-146.25;100.00;52532.44;2078022;28;20176;-67
2023/01/26 04:42:44;;;;;;;66.07;19.77;;;;;;;-146.25;100.00;52497.97;2080253;28;20058;-67
2023/01/26 04:43:46;;;;;;;61.42;18.80;;;;;;;-146.25;100.00;52530.41;2079771;28;20549;-67
2023/01/26 04:44:52;;;;;;;62.95;18.77;;;;;;;-146.25;100.00;52508.09;2079758;28;20085;-67
2023/01/26 04:46:02;;;;;;;57.95;19.17;;;;;;;-146.25;100.00;52473.63;2080428;28;20038;-67
2023/01/26 04:47:07;;;;;;;59.87;18.37;;;;;;;-146.25;100.00;52497.97;2072402;28;20042;-67
2023/01/26 04:48:08;;;;;;;55.63;18.67;;;;;;;-146.25;100.00;52530.41;2072924;28;20218;-68
2023/01/26 04:49:10;;;;;;;60.40;19.15;;;;;;;-146.25;100.00;52542.56;2087882;28;20042;-67
2023/01/26 04:50:13;;;;;;;60.22;18.55;;;;;;;-146.25;100.00;52510.13;2080062;28;20132;-67
2023/01/26 04:51:20;;;;;;;60.53;18.88;;;;;;;-146.25;100.00;52473.63;2079591;28;20944;-67
2023/01/26 04:52:22;;;;;;;59.65;17.90;;;;;;;-146.25;100.00;52506.06;2080230;28;21061;-67
2023/01/26 04:53:24;;;;;;;60.88;17.92;;;;;;;-146.25;100.00;52510.13;2087600;28;31283;-68
2023/01/26 04:54:25;;;;;;;64.35;19.33;;;;;;;-146.25;100.00;52502.03;2088428;28;20790;-67
2023/01/26 04:55:27;;;;;;;56.25;18.42;;;;;;;-146.25;100.00;52502.03;2087975;28;20042;-67
2023/01/26 04:56:33;;;;;;;55.30;17.50;;;;;;;-146.25;100.00;52497.97;2079863;28;20046;-68
2023/01/26 04:57:36;;;;;;;60.42;17.77;;;;;;;-146.25;100.00;52544.59;2079622;28;20176;-67
2023/01/26 04:58:39;;;;;;;53.85;17.08;;;;;;;-146.25;100.00;52526.34;2079692;28;20740;-68
2023/01/26 04:59:41;;;;;;;54.63;17.73;;;;;;;-146.25;100.00;52516.22;2079532;28;20098;-67
2023/01/26 05:00:42;;;;;;;57.17;17.88;;;;;;;-146.25;100.00;52526.34;2079358;28;20046;-68
2023/01/26 05:01:44;;;;;;;53.67;17.40;;;;;;;-146.25;100.00;52485.81;2071865;28;20948;-68
2023/01/26 05:02:46;;;;;;;55.97;16.98;;;;;;;-146.25;100.00;52540.53;2070930;28;20109;-67
2023/01/26 05:03:51;;;;;;;52.00;16.02;;;;;;;-146.25;100.00;52542.56;2071932;28;20035;-68
2023/01/26 05:04:53;;;;;;;51.15;17.13;;;;;;;-146.25;100.00;52542.56;2080269;28;29388;-67
2023/01/26 05:05:55;;;;;;;52.45;17.60;;;;;;;-146.25;100.00;52550.69;2082310;28;20926;-67
2023/01/26 05:06:58;;;;;;;52.13;17.08;;;;;;;-146.25;100.00;52489.84;2074450;28;20108;-68
2023/01/26 05:08:01;;;;;;;53.75;17.70;;;;;;;-146.25;100.00;52562.84;2082296;28;20057;-67
2023/01/26 05:09:08;;;;;;;55.38;16.25;;;;;;;-146.25;100.00;52554.75;2074452;28;20951;-68
2023/01/26 05:10:11;;;;;;;54.92;17.20;;;;;;;-146.25;100.00;52532.44;2074961;28;20930;-67
2023/01/26 05:11:26;;;;;;;50.88;15.80;;;;;;;-146.25;100.00;52548.66;2082470;28;20215;-68
2023/01/26 05:12:41;;;;;;;53.15;15.57;;;;;;;-146.25;100.00;52504.03;2088554;28;20030;-66
2023/01/26 05:14:02;;;;;;;45.72;15.57;;;;;;;-146.25;100.00;52506.06;2089977;28;20068;-67
2023/01/26 05:15:20;;;;;;;49.30;15.75;;;;;;;-146.25;100.00;52538.53;2092872;28;20038;-69
2023/01/26 05:16:41;;;;;;;48.55;15.65;;;;;;;-146.25;100.00;52495.94;2095764;28;20037;-68
2023/01/26 05:17:58;;;;;;;52.17;16.30;;;;;;;-146.25;100.00;52516.22;2090041;28;20188;-68
2023/01/26 05:19:13;;;;;;;52.15;15.90;;;;;;;-146.25;100.00;52512.16;2089940;28;20911;-68
2023/01/26 05:20:37;;;;;;;51.20;15.43;;;;;;;-146.25;100.00;52518.25;2089243;28;20072;-69
2023/01/26 05:21:48;;;;;;;48.67;15.65;;;;;;;-146.25;100.00;52516.22;2090127;28;20041;-69
2023/01/26 05:22:50;;;;;;;51.08;15.85;;;;;;;-146.25;100.00;52504.03;2082380;28;20065;-68
2023/01/26 05:24:13;;;;;;;52.25;16.65;;;;;;;-146.25;100.00;52526.34;2090356;28;20907;-67
2023/01/26 05:25:33;;;;;;;53.17;15.68;;;;;;;-146.25;100.00;52552.72;2091100;28;20191;-68
2023/01/26 05:26:38;;;;;;;50.55;15.70;;;;;;;-146.25;100.00;52516.22;2091249;28;20907;-69
2023/01/26 05:27:47;;;;;;;50.85;15.10;;;;;;;-146.25;100.00;52526.34;2090955;28;20072;-69
2023/01/26 05:28:50;;;;;;;48.95;15.90;;;;;;;-146.25;100.00;52491.88;2091141;28;20689;-68
2023/01/26 05:29:53;;;;;;;48.45;15.40;;;;;;;-146.25;100.00;52530.41;2088924;28;20614;-68
2023/01/26 05:30:56;;;;;;;51.78;17.08;;;;;;;-146.25;100.00;52530.41;2090748;28;20973;-69
2023/01/26 05:31:57;;;;;;;52.95;16.88;;;;;;;-146.25;100.00;52516.22;2089950;28;20916;-69
2023/01/26 05:33:08;;;;;;;48.13;15.98;;;;;;;-146.25;100.00;52495.94;2090565;28;20053;-69
2023/01/26 05:34:12;;;;;;;54.83;16.33;;;;;;;-146.25;100.00;52528.38;2090279;28;20195;-69